Latest Weather Observations for Rowley Shoals

IDW60801

Issued at 11:05 pm WST Tuesday 22 July 2014 (issued every 30 minutes, with the page automatically refreshed every 10 minutes)

About weather observations | Map of weather stations | Latest weather observations for WA | Other Formats
Station Details ID: 200713 Name: ROWLEY SHOALS Lat: -17.52 Lon: 118.95 Height: 0.0 m
Data from the previous 72 hours. | See also: Recent months for locations in Western Australia
Date/Time
WST
Temp
°C
App
Temp
°C
Dew
Point
Rel
Hum
%
Delta-T
°C
Wind Press
QNH
hPa
Press
MSL
hPa
Rain
since 9 am
mm
Dir
 
Spd
km/h
Gust
km/h
Spd
kts
Gust
kts
22/11:00pm - - - - - S 19 22 10 12 1015.5 - -
22/10:30pm - - - - - S 20 28 11 15 1015.6 - -
22/10:00pm - - - - - S 20 24 11 13 1015.8 1015.7 -
22/09:30pm - - - - - S 20 24 11 13 1015.7 - -
22/09:00pm - - - - - SSW 20 26 11 14 1015.8 1015.7 -
22/08:30pm - - - - - SSW 20 26 11 14 1015.7 - -
22/08:00pm - - - - - S 19 22 10 12 1015.5 1015.6 -
22/07:30pm - - - - - S 19 22 10 12 1015.4 - -
22/07:00pm - - - - - S 20 26 11 14 1015.0 1015.1 -
22/06:30pm - - - - - SSW 22 28 12 15 1014.7 - -
22/06:00pm - - - - - SSW 22 26 12 14 1014.4 1014.4 -
22/05:30pm - - - - - SSW 20 26 11 14 1014.1 - -
22/05:00pm - - - - - S 20 28 11 15 1013.9 1013.9 -
22/04:30pm - - - - - SSW 22 26 12 14 1013.9 - -
22/04:00pm - - - - - S 22 30 12 16 1013.8 1013.9 -
22/03:30pm - - - - - SSW 26 30 14 16 1013.8 - -
22/03:00pm - - - - - SSW 26 30 14 16 1013.9 1013.9 -
22/02:30pm - - - - - SSW 26 30 14 16 1014.0 - -
22/02:00pm - - - - - SSW 24 28 13 15 1014.3 1014.2 -
22/01:30pm - - - - - SSW 22 28 12 15 1014.7 - -
22/01:00pm - - - - - SSW 22 26 12 14 1015.0 1014.9 -
22/12:30pm - - - - - SSW 24 30 13 16 1015.3 - -
22/12:00pm - - - - - SSW 26 30 14 16 1015.7 1015.5 -
22/11:30am - - - - - S 26 32 14 17 1015.8 - -
22/11:00am - - - - - SSW 30 35 16 19 1016.2 1016.1 -
22/10:30am - - - - - SSW 33 37 18 20 1016.3 - -
22/10:00am - - - - - SSW 35 41 19 22 1016.4 1016.4 -
22/09:30am - - - - - SSW 37 43 20 23 1016.5 - -
22/09:00am - - - - - SSW 39 46 21 25 1016.7 1016.6 -
22/08:30am - - - - - SSW 41 46 22 25 1016.4 - -
22/08:00am - - - - - SSW 43 46 23 25 1015.9 1016.0 -
22/07:30am - - - - - SSW 39 46 21 25 1015.5 - -
22/07:00am - - - - - SSW 33 35 18 19 1015.4 1015.4 -
22/06:30am - - - - - SW 32 37 17 20 1015.2 - -
22/06:00am - - - - - W 20 22 11 12 1014.9 1015.0 -
22/05:30am - - - - - WNW 17 20 9 11 1014.7 - -
22/05:00am - - - - - WNW 17 17 9 9 1014.5 1014.5 -
22/04:30am - - - - - WNW 15 17 8 9 1014.4 - -
22/04:00am - - - - - WNW 15 19 8 10 1014.6 1014.5 -
22/03:30am - - - - - NW 13 17 7 9 1014.5 - -
22/03:00am - - - - - NW 15 17 8 9 1014.6 1014.5 -
22/02:30am - - - - - NW 13 13 7 7 1014.6 - -
22/02:00am - - - - - NW 9 11 5 6 1014.6 1014.7 -
22/01:30am - - - - - NW 7 9 4 5 1014.9 - -
22/01:00am - - - - - NW 11 11 6 6 1015.0 1015.1 -
22/12:30am - - - - - NNW 11 11 6 6 1014.9 - -
22/12:00am - - - - - N 11 11 6 6 1014.8 1014.8 -
 
Date/Time
WST
Temp
°C
App
Temp
°C
Dew
Point
Rel
Hum
%
Delta-T
°C
Wind Press
QNH
hPa
Press
MSL
hPa
Rain
since 9 am
mm
Dir
 
Spd
km/h
Gust
km/h
Spd
kts
Gust
kts
21/11:30pm - - - - - N 9 13 5 7 1014.9 - -
21/11:00pm - - - - - N 11 - 6 - - 1014.8 -
21/10:30pm - - - - - NNE 13 17 7 9 1014.7 - -
21/10:00pm - - - - - NE 15 19 8 10 1014.5 1014.4 -
21/09:30pm - - - - - NE 15 20 8 11 1014.5 - -
21/09:00pm - - - - - NE 13 15 7 8 1014.7 1014.7 -
21/08:30pm - - - - - ENE 13 17 7 9 1014.8 - -
21/08:00pm - - - - - ENE 13 13 7 7 1014.8 1014.8 -
21/07:30pm - - - - - ENE 11 13 6 7 1014.7 - -
21/07:00pm - - - - - ENE 13 17 7 9 1014.3 1014.4 -
21/06:30pm - - - - - ENE 15 19 8 10 1014.3 - -
21/06:00pm - - - - - ENE 15 19 8 10 1014.2 1014.3 -
21/05:30pm - - - - - E 19 22 10 12 1013.9 - -
21/05:00pm - - - - - E 19 20 10 11 1013.9 1013.9 -
21/04:30pm - - - - - E 22 24 12 13 1013.6 - -
21/04:00pm - - - - - E 22 26 12 14 1013.4 1013.4 -
21/03:30pm - - - - - E 22 26 12 14 1013.5 - -
21/03:00pm - - - - - E 24 26 13 14 1013.4 1013.3 -
21/02:30pm - - - - - ENE 26 30 14 16 1013.4 - -
21/02:00pm - - - - - ENE 24 30 13 16 1013.8 1013.7 -
21/01:30pm - - - - - ENE 28 32 15 17 1013.8 - -
21/01:00pm - - - - - ENE 28 32 15 17 1014.3 1014.2 -
21/12:30pm - - - - - ENE 30 33 16 18 1014.7 - -
21/12:00pm - - - - - ENE 32 35 17 19 1014.9 - -
21/11:30am - - - - - ENE 33 39 18 21 1015.4 - -
21/11:00am - - - - - ENE 32 35 17 19 1016.0 1015.9 -
21/10:30am - - - - - ENE 32 35 17 19 1016.4 - -
21/10:00am - - - - - ENE 32 37 17 20 1016.5 1016.6 -
21/09:30am - - - - - ENE 30 35 16 19 1016.8 - -
21/09:00am - - - - - ENE 32 35 17 19 1016.7 1016.6 -
21/08:30am - - - - - E 33 39 18 21 1016.3 - -
21/08:00am - - - - - E 32 37 17 20 1016.0 1016.3 -
21/07:30am - - - - - E 30 35 16 19 1015.7 - -
21/07:00am - - - - - E 32 35 17 19 1015.3 1015.4 -
21/06:30am - - - - - E 30 35 16 19 1015.1 - -
21/06:00am - - - - - E 28 30 15 16 1015.1 1015.0 -
21/05:30am - - - - - E 28 32 15 17 1014.9 - -
21/05:00am - - - - - E 28 32 15 17 1014.9 1014.9 -
21/04:30am - - - - - E 28 32 15 17 1014.9 - -
21/04:00am - - - - - E 28 35 15 19 1014.7 1014.9 -
21/03:30am - - - - - E 28 32 15 17 1014.7 - -
21/03:00am - - - - - E 28 33 15 18 1014.7 1014.7 -
21/02:30am - - - - - E 28 32 15 17 1014.7 - -
21/02:00am - - - - - E 30 33 16 18 1014.6 1014.6 -
21/01:30am - - - - - E 30 35 16 19 1014.7 - -
21/01:00am - - - - - E 28 33 15 18 1014.8 1014.8 -
21/12:30am - - - - - E 28 32 15 17 1014.9 - -
21/12:00am - - - - - E 30 35 16 19 1014.8 1015.0 -
 
Date/Time
WST
Temp
°C
App
Temp
°C
Dew
Point
Rel
Hum
%
Delta-T
°C
Wind Press
QNH
hPa
Press
MSL
hPa
Rain
since 9 am
mm
Dir
 
Spd
km/h
Gust
km/h
Spd
kts
Gust
kts
20/11:30pm - - - - - E 30 35 16 19 1014.9 - -
20/11:00pm - - - - - ESE 30 35 16 19 1015.0 1015.0 -
20/10:30pm - - - - - ESE 30 33 16 18 1015.0 - -
20/10:00pm - - - - - ESE 30 33 16 18 1015.2 1015.3 -
20/09:30pm - - - - - E 24 28 13 15 1015.3 - -
20/09:00pm - - - - - E 22 24 12 13 1015.3 1015.4 -
20/08:30pm - - - - - E 19 20 10 11 1015.3 - -
20/08:00pm - - - - - E 19 20 10 11 1015.0 1015.1 -
20/07:30pm - - - - - E 19 20 10 11 1014.9 - -
20/07:00pm - - - - - E 19 20 10 11 1014.7 1014.8 -
20/06:30pm - - - - - E 19 20 10 11 1014.4 - -
20/06:00pm - - - - - ENE 17 20 9 11 1014.1 1014.2 -
20/05:30pm - - - - - ENE 19 22 10 12 1013.8 - -
20/05:00pm - - - - - ENE 19 22 10 12 1013.6 1013.7 -
20/04:30pm - - - - - ENE 17 19 9 10 1013.4 - -
20/04:00pm - - - - - ENE 15 17 8 9 1013.5 1013.5 -
20/03:30pm - - - - - ENE 15 17 8 9 1013.4 - -
20/03:00pm - - - - - E 17 19 9 10 1013.3 1013.3 -
20/02:30pm - - - - - E 17 19 9 10 1013.2 - -
20/02:00pm - - - - - E 17 20 9 11 1013.2 1013.2 -
20/01:30pm - - - - - E 19 20 10 11 1013.4 - -
20/01:00pm - - - - - ESE 13 24 7 13 1013.8 1013.7 -
20/12:30pm - - - - - SE 20 28 11 15 1014.2 - -
20/12:00pm - - - - - SE 22 26 12 14 1014.6 1014.5 -
20/11:30am - - - - - SSE 24 28 13 15 1014.9 - -
20/11:00am - - - - - SSE 26 30 14 16 1015.2 1015.1 -
20/10:30am - - - - - SSE 19 22 10 12 1015.7 - -
20/10:00am - - - - - SSE 20 24 11 13 1015.8 1015.8 -
20/09:30am - - - - - SSE 15 19 8 10 1016.1 - -
20/09:00am - - - - - SSE 19 20 10 11 1016.1 1016.1 -
20/08:30am - - - - - SE 15 19 8 10 1016.1 - -
20/08:00am - - - - - SE 19 20 10 11 1015.7 1015.8 -
20/07:30am - - - - - SE 19 22 10 12 1015.3 - -
20/07:00am - - - - - SE 22 24 12 13 1014.8 1015.0 -
20/06:30am - - - - - ESE 20 24 11 13 1014.4 - -
20/06:00am - - - - - E 19 20 10 11 1013.9 1014.1 -
20/05:30am - - - - - ESE 26 35 14 19 1013.6 - -
20/05:00am - - - - - ESE 22 24 12 13 1013.5 1013.4 -
20/04:30am - - - - - ESE 22 24 12 13 1013.5 - -
20/04:00am - - - - - ESE 22 24 12 13 1013.5 1013.5 -
20/03:30am - - - - - ESE 22 26 12 14 1013.5 - -
20/03:00am - - - - - ESE 22 24 12 13 1013.6 1013.5 -
20/02:30am - - - - - ESE 20 22 11 12 1013.8 - -
20/02:00am - - - - - ESE 22 26 12 14 1013.8 1013.8 -
20/01:30am - - - - - ESE 17 20 9 11 1014.2 - -
20/01:00am - - - - - SSE 15 17 8 9 1014.2 1014.2 -
20/12:30am - - - - - SSE 11 13 6 7 1014.4 - -
20/12:00am - - - - - S 11 13 6 7 1014.5 1014.6 -
 
Date/Time
WST
Temp
°C
App
Temp
°C
Dew
Point
Rel
Hum
%
Delta-T
°C
Wind Press
QNH
hPa
Press
MSL
hPa
Rain
since 9 am
mm
Dir
 
Spd
km/h
Gust
km/h
Spd
kts
Gust
kts
19/11:30pm - - - - - SSW 6 9 3 5 1014.8 - -

Other Formats:

Comma delimited format used in spreadsheet applications
http://www.bom.gov.au/fwo/IDW60801/IDW60801.94207.axf

JavaScript Object Notation format (JSON) in row-major order
http://www.bom.gov.au/fwo/IDW60801/IDW60801.94207.json